sensor_id;sensor_type;location;lat;lon;timestamp;P1;durP1;ratioP1;P2;durP2;ratioP2
72524;SDS011;60547;48.502;8.996;2023-06-22T00:00:42;7.95;;;5.43;;
72524;SDS011;60547;48.502;8.996;2023-06-22T00:03:08;10.90;;;5.18;;
72524;SDS011;60547;48.502;8.996;2023-06-22T00:05:34;8.32;;;5.40;;
72524;SDS011;60547;48.502;8.996;2023-06-22T00:08:02;10.68;;;6.20;;
72524;SDS011;60547;48.502;8.996;2023-06-22T00:10:28;9.50;;;5.00;;
72524;SDS011;60547;48.502;8.996;2023-06-22T00:12:54;8.07;;;5.50;;
72524;SDS011;60547;48.502;8.996;2023-06-22T00:15:19;9.48;;;5.30;;
72524;SDS011;60547;48.502;8.996;2023-06-22T00:17:45;8.43;;;5.03;;
72524;SDS011;60547;48.502;8.996;2023-06-22T00:20:10;8.13;;;4.93;;
72524;SDS011;60547;48.502;8.996;2023-06-22T00:22:36;10.20;;;5.63;;
72524;SDS011;60547;48.502;8.996;2023-06-22T00:25:05;8.90;;;5.20;;
72524;SDS011;60547;48.502;8.996;2023-06-22T00:27:32;8.35;;;5.30;;
72524;SDS011;60547;48.502;8.996;2023-06-22T00:29:57;9.68;;;5.43;;
72524;SDS011;60547;48.502;8.996;2023-06-22T00:32:22;8.10;;;5.10;;
72524;SDS011;60547;48.502;8.996;2023-06-22T00:34:48;8.88;;;5.30;;
72524;SDS011;60547;48.502;8.996;2023-06-22T00:37:15;8.52;;;5.13;;
72524;SDS011;60547;48.502;8.996;2023-06-22T00:39:41;9.85;;;5.55;;
72524;SDS011;60547;48.502;8.996;2023-06-22T00:42:08;8.40;;;5.80;;
72524;SDS011;60547;48.502;8.996;2023-06-22T00:44:34;9.18;;;5.57;;
72524;SDS011;60547;48.502;8.996;2023-06-22T00:47:00;8.88;;;5.25;;
72524;SDS011;60547;48.502;8.996;2023-06-22T00:49:26;8.60;;;5.50;;
72524;SDS011;60547;48.502;8.996;2023-06-22T00:51:51;9.48;;;5.30;;
72524;SDS011;60547;48.502;8.996;2023-06-22T00:54:17;8.50;;;4.90;;
72524;SDS011;60547;48.502;8.996;2023-06-22T00:56:51;9.63;;;5.43;;
72524;SDS011;60547;48.502;8.996;2023-06-22T00:59:20;8.80;;;5.30;;
72524;SDS011;60547;48.502;8.996;2023-06-22T01:01:46;8.45;;;5.90;;
72524;SDS011;60547;48.502;8.996;2023-06-22T01:04:12;9.85;;;5.60;;
72524;SDS011;60547;48.502;8.996;2023-06-22T01:06:42;8.30;;;5.57;;
72524;SDS011;60547;48.502;8.996;2023-06-22T01:09:54;9.25;;;5.50;;
72524;SDS011;60547;48.502;8.996;2023-06-22T01:12:29;10.82;;;5.97;;
72524;SDS011;60547;48.502;8.996;2023-06-22T01:15:00;9.75;;;5.03;;
72524;SDS011;60547;48.502;8.996;2023-06-22T01:17:30;9.90;;;5.95;;
72524;SDS011;60547;48.502;8.996;2023-06-22T01:19:57;9.95;;;5.60;;
72524;SDS011;60547;48.502;8.996;2023-06-22T01:22:26;9.65;;;5.65;;
72524;SDS011;60547;48.502;8.996;2023-06-22T01:30:06;11.18;;;6.30;;
72524;SDS011;60547;48.502;8.996;2023-06-22T01:32:35;8.43;;;5.43;;
72524;SDS011;60547;48.502;8.996;2023-06-22T01:35:03;10.73;;;5.97;;
72524;SDS011;60547;48.502;8.996;2023-06-22T01:37:31;9.30;;;5.88;;
72524;SDS011;60547;48.502;8.996;2023-06-22T01:39:59;11.43;;;6.38;;
72524;SDS011;60547;48.502;8.996;2023-06-22T01:42:26;9.75;;;6.28;;
72524;SDS011;60547;48.502;8.996;2023-06-22T01:44:52;11.10;;;5.60;;
72524;SDS011;60547;48.502;8.996;2023-06-22T01:47:19;10.23;;;6.50;;
72524;SDS011;60547;48.502;8.996;2023-06-22T01:49:46;9.77;;;6.20;;
72524;SDS011;60547;48.502;8.996;2023-06-22T01:52:11;10.00;;;5.95;;
72524;SDS011;60547;48.502;8.996;2023-06-22T01:54:38;12.43;;;6.10;;
72524;SDS011;60547;48.502;8.996;2023-06-22T01:57:04;9.13;;;5.82;;
72524;SDS011;60547;48.502;8.996;2023-06-22T01:59:34;8.70;;;5.47;;
72524;SDS011;60547;48.502;8.996;2023-06-22T02:02:02;8.60;;;5.72;;
72524;SDS011;60547;48.502;8.996;2023-06-22T02:04:44;8.48;;;5.20;;
72524;SDS011;60547;48.502;8.996;2023-06-22T02:07:17;9.52;;;5.40;;
72524;SDS011;60547;48.502;8.996;2023-06-22T02:09:46;8.25;;;5.00;;
72524;SDS011;60547;48.502;8.996;2023-06-22T02:12:17;9.15;;;5.72;;
72524;SDS011;60547;48.502;8.996;2023-06-22T02:17:12;9.02;;;5.45;;
72524;SDS011;60547;48.502;8.996;2023-06-22T02:19:38;11.18;;;5.40;;
72524;SDS011;60547;48.502;8.996;2023-06-22T02:22:06;9.15;;;5.57;;
72524;SDS011;60547;48.502;8.996;2023-06-22T02:24:32;7.63;;;4.95;;
72524;SDS011;60547;48.502;8.996;2023-06-22T02:26:59;9.63;;;5.50;;
72524;SDS011;60547;48.502;8.996;2023-06-22T02:29:25;9.25;;;5.95;;
72524;SDS011;60547;48.502;8.996;2023-06-22T02:31:52;8.50;;;5.50;;
72524;SDS011;60547;48.502;8.996;2023-06-22T02:34:18;9.98;;;5.55;;
72524;SDS011;60547;48.502;8.996;2023-06-22T02:36:45;9.43;;;5.95;;
72524;SDS011;60547;48.502;8.996;2023-06-22T02:39:22;10.90;;;5.32;;
72524;SDS011;60547;48.502;8.996;2023-06-22T02:41:49;10.63;;;5.80;;
72524;SDS011;60547;48.502;8.996;2023-06-22T02:44:15;10.60;;;6.07;;
72524;SDS011;60547;48.502;8.996;2023-06-22T02:46:41;9.18;;;5.55;;
72524;SDS011;60547;48.502;8.996;2023-06-22T02:49:07;9.27;;;5.50;;
72524;SDS011;60547;48.502;8.996;2023-06-22T02:51:33;10.57;;;6.55;;
72524;SDS011;60547;48.502;8.996;2023-06-22T02:53:59;9.23;;;5.97;;
72524;SDS011;60547;48.502;8.996;2023-06-22T02:56:25;10.32;;;5.78;;
72524;SDS011;60547;48.502;8.996;2023-06-22T02:58:51;9.13;;;5.38;;
72524;SDS011;60547;48.502;8.996;2023-06-22T03:01:17;9.68;;;6.38;;
72524;SDS011;60547;48.502;8.996;2023-06-22T03:03:49;9.80;;;5.72;;
72524;SDS011;60547;48.502;8.996;2023-06-22T03:06:15;11.13;;;6.10;;
72524;SDS011;60547;48.502;8.996;2023-06-22T03:08:41;8.77;;;5.90;;
72524;SDS011;60547;48.502;8.996;2023-06-22T03:11:09;8.60;;;5.35;;
72524;SDS011;60547;48.502;8.996;2023-06-22T03:13:34;10.52;;;5.32;;
72524;SDS011;60547;48.502;8.996;2023-06-22T03:16:00;10.18;;;5.80;;
72524;SDS011;60547;48.502;8.996;2023-06-22T03:18:25;9.98;;;6.25;;
72524;SDS011;60547;48.502;8.996;2023-06-22T03:20:50;11.80;;;6.07;;
72524;SDS011;60547;48.502;8.996;2023-06-22T03:23:16;10.57;;;5.85;;
72524;SDS011;60547;48.502;8.996;2023-06-22T03:25:41;8.80;;;5.50;;
72524;SDS011;60547;48.502;8.996;2023-06-22T03:28:09;9.98;;;5.88;;
72524;SDS011;60547;48.502;8.996;2023-06-22T03:30:35;9.85;;;5.90;;
72524;SDS011;60547;48.502;8.996;2023-06-22T03:33:00;9.95;;;5.70;;
72524;SDS011;60547;48.502;8.996;2023-06-22T03:35:26;8.45;;;5.70;;
72524;SDS011;60547;48.502;8.996;2023-06-22T03:37:52;9.25;;;5.72;;
72524;SDS011;60547;48.502;8.996;2023-06-22T03:40:17;8.32;;;6.20;;
72524;SDS011;60547;48.502;8.996;2023-06-22T03:42:43;11.13;;;6.22;;
72524;SDS011;60547;48.502;8.996;2023-06-22T03:45:08;11.77;;;6.10;;
72524;SDS011;60547;48.502;8.996;2023-06-22T03:47:34;12.95;;;6.30;;
72524;SDS011;60547;48.502;8.996;2023-06-22T03:50:00;10.90;;;5.95;;
72524;SDS011;60547;48.502;8.996;2023-06-22T03:52:25;8.27;;;5.45;;
72524;SDS011;60547;48.502;8.996;2023-06-22T03:54:51;9.82;;;6.53;;
72524;SDS011;60547;48.502;8.996;2023-06-22T03:57:16;9.68;;;6.47;;
72524;SDS011;60547;48.502;8.996;2023-06-22T03:59:42;10.57;;;6.32;;
72524;SDS011;60547;48.502;8.996;2023-06-22T04:02:12;9.63;;;6.22;;
72524;SDS011;60547;48.502;8.996;2023-06-22T04:04:43;9.75;;;5.57;;
72524;SDS011;60547;48.502;8.996;2023-06-22T04:07:11;9.38;;;5.53;;
72524;SDS011;60547;48.502;8.996;2023-06-22T04:09:36;9.57;;;5.72;;
72524;SDS011;60547;48.502;8.996;2023-06-22T04:12:02;11.70;;;6.30;;
72524;SDS011;60547;48.502;8.996;2023-06-22T04:14:28;10.43;;;6.28;;
72524;SDS011;60547;48.502;8.996;2023-06-22T04:16:53;10.90;;;6.53;;
72524;SDS011;60547;48.502;8.996;2023-06-22T04:19:19;9.25;;;6.13;;
72524;SDS011;60547;48.502;8.996;2023-06-22T04:21:44;10.20;;;6.13;;
72524;SDS011;60547;48.502;8.996;2023-06-22T04:24:10;9.90;;;6.25;;
72524;SDS011;60547;48.502;8.996;2023-06-22T04:26:36;9.95;;;5.97;;
72524;SDS011;60547;48.502;8.996;2023-06-22T04:29:03;9.88;;;5.97;;
72524;SDS011;60547;48.502;8.996;2023-06-22T04:31:34;10.68;;;6.13;;
72524;SDS011;60547;48.502;8.996;2023-06-22T04:34:05;12.82;;;6.75;;
72524;SDS011;60547;48.502;8.996;2023-06-22T04:36:34;12.77;;;6.75;;
72524;SDS011;60547;48.502;8.996;2023-06-22T04:39:12;11.57;;;6.40;;
72524;SDS011;60547;48.502;8.996;2023-06-22T04:41:38;13.18;;;5.93;;
72524;SDS011;60547;48.502;8.996;2023-06-22T04:44:08;9.60;;;6.03;;
72524;SDS011;60547;48.502;8.996;2023-06-22T04:46:35;10.45;;;6.10;;
72524;SDS011;60547;48.502;8.996;2023-06-22T04:49:12;10.05;;;6.55;;
72524;SDS011;60547;48.502;8.996;2023-06-22T04:51:41;9.60;;;6.25;;
72524;SDS011;60547;48.502;8.996;2023-06-22T04:54:07;12.38;;;6.15;;
72524;SDS011;60547;48.502;8.996;2023-06-22T04:56:34;14.45;;;6.10;;
72524;SDS011;60547;48.502;8.996;2023-06-22T04:59:00;12.73;;;7.05;;
72524;SDS011;60547;48.502;8.996;2023-06-22T05:01:26;12.93;;;6.78;;
72524;SDS011;60547;48.502;8.996;2023-06-22T05:03:51;12.82;;;7.13;;
72524;SDS011;60547;48.502;8.996;2023-06-22T05:06:23;11.68;;;6.95;;
72524;SDS011;60547;48.502;8.996;2023-06-22T05:08:56;13.13;;;6.70;;
72524;SDS011;60547;48.502;8.996;2023-06-22T05:11:26;12.43;;;7.45;;
72524;SDS011;60547;48.502;8.996;2023-06-22T05:13:52;12.27;;;7.35;;
72524;SDS011;60547;48.502;8.996;2023-06-22T05:16:18;10.73;;;6.88;;
72524;SDS011;60547;48.502;8.996;2023-06-22T05:18:49;13.10;;;6.88;;
72524;SDS011;60547;48.502;8.996;2023-06-22T05:21:16;12.73;;;7.32;;
72524;SDS011;60547;48.502;8.996;2023-06-22T05:23:42;10.98;;;6.80;;
72524;SDS011;60547;48.502;8.996;2023-06-22T05:26:07;10.25;;;6.57;;
72524;SDS011;60547;48.502;8.996;2023-06-22T05:28:34;12.07;;;6.72;;
72524;SDS011;60547;48.502;8.996;2023-06-22T05:31:00;11.52;;;6.70;;
72524;SDS011;60547;48.502;8.996;2023-06-22T05:33:25;12.98;;;6.78;;
72524;SDS011;60547;48.502;8.996;2023-06-22T05:35:51;12.27;;;7.07;;
72524;SDS011;60547;48.502;8.996;2023-06-22T05:38:16;11.98;;;7.18;;
72524;SDS011;60547;48.502;8.996;2023-06-22T05:40:42;14.13;;;7.30;;
72524;SDS011;60547;48.502;8.996;2023-06-22T05:43:07;13.10;;;7.45;;
72524;SDS011;60547;48.502;8.996;2023-06-22T05:45:33;10.95;;;6.85;;
72524;SDS011;60547;48.502;8.996;2023-06-22T05:47:58;12.02;;;7.30;;
72524;SDS011;60547;48.502;8.996;2023-06-22T05:50:24;11.27;;;7.35;;
72524;SDS011;60547;48.502;8.996;2023-06-22T05:52:49;15.70;;;8.30;;
72524;SDS011;60547;48.502;8.996;2023-06-22T05:55:15;12.80;;;7.75;;
72524;SDS011;60547;48.502;8.996;2023-06-22T05:57:40;11.75;;;6.80;;
72524;SDS011;60547;48.502;8.996;2023-06-22T06:00:06;12.32;;;8.50;;
72524;SDS011;60547;48.502;8.996;2023-06-22T06:02:35;12.10;;;7.50;;
72524;SDS011;60547;48.502;8.996;2023-06-22T06:05:01;12.93;;;7.80;;
72524;SDS011;60547;48.502;8.996;2023-06-22T06:07:27;13.07;;;7.88;;
72524;SDS011;60547;48.502;8.996;2023-06-22T06:09:53;13.48;;;8.10;;
72524;SDS011;60547;48.502;8.996;2023-06-22T06:12:18;12.95;;;7.28;;
72524;SDS011;60547;48.502;8.996;2023-06-22T06:14:44;11.48;;;6.95;;
72524;SDS011;60547;48.502;8.996;2023-06-22T06:17:09;12.40;;;7.10;;
72524;SDS011;60547;48.502;8.996;2023-06-22T06:19:35;11.82;;;7.43;;
72524;SDS011;60547;48.502;8.996;2023-06-22T06:22:00;12.10;;;6.75;;
72524;SDS011;60547;48.502;8.996;2023-06-22T06:24:26;12.40;;;7.20;;
72524;SDS011;60547;48.502;8.996;2023-06-22T06:26:51;12.32;;;6.97;;
72524;SDS011;60547;48.502;8.996;2023-06-22T06:29:17;11.93;;;6.90;;
72524;SDS011;60547;48.502;8.996;2023-06-22T06:31:42;13.13;;;6.85;;
72524;SDS011;60547;48.502;8.996;2023-06-22T06:34:08;10.45;;;6.53;;
72524;SDS011;60547;48.502;8.996;2023-06-22T06:36:33;12.25;;;6.88;;
72524;SDS011;60547;48.502;8.996;2023-06-22T06:38:59;11.45;;;6.80;;
72524;SDS011;60547;48.502;8.996;2023-06-22T06:41:24;15.32;;;7.43;;
72524;SDS011;60547;48.502;8.996;2023-06-22T06:43:50;14.13;;;7.53;;
72524;SDS011;60547;48.502;8.996;2023-06-22T06:46:15;11.55;;;6.10;;
72524;SDS011;60547;48.502;8.996;2023-06-22T06:48:41;11.82;;;6.70;;
72524;SDS011;60547;48.502;8.996;2023-06-22T06:51:06;10.02;;;6.22;;
72524;SDS011;60547;48.502;8.996;2023-06-22T06:53:35;10.40;;;5.75;;
72524;SDS011;60547;48.502;8.996;2023-06-22T06:56:01;11.30;;;6.45;;
72524;SDS011;60547;48.502;8.996;2023-06-22T06:58:27;9.82;;;6.15;;
72524;SDS011;60547;48.502;8.996;2023-06-22T07:00:56;9.35;;;5.63;;
72524;SDS011;60547;48.502;8.996;2023-06-22T07:03:22;11.38;;;6.15;;
72524;SDS011;60547;48.502;8.996;2023-06-22T07:05:47;9.85;;;5.78;;
72524;SDS011;60547;48.502;8.996;2023-06-22T07:08:13;10.07;;;5.78;;
72524;SDS011;60547;48.502;8.996;2023-06-22T07:10:39;9.60;;;5.80;;
72524;SDS011;60547;48.502;8.996;2023-06-22T07:13:04;7.55;;;4.72;;
72524;SDS011;60547;48.502;8.996;2023-06-22T07:15:30;9.70;;;5.07;;
72524;SDS011;60547;48.502;8.996;2023-06-22T07:17:55;7.65;;;4.95;;
72524;SDS011;60547;48.502;8.996;2023-06-22T07:20:20;8.85;;;5.22;;
72524;SDS011;60547;48.502;8.996;2023-06-22T07:22:46;7.40;;;5.00;;
72524;SDS011;60547;48.502;8.996;2023-06-22T07:25:12;9.77;;;5.05;;
72524;SDS011;60547;48.502;8.996;2023-06-22T07:27:45;8.60;;;4.68;;
72524;SDS011;60547;48.502;8.996;2023-06-22T07:30:13;10.13;;;4.68;;
72524;SDS011;60547;48.502;8.996;2023-06-22T07:32:39;11.10;;;4.75;;
72524;SDS011;60547;48.502;8.996;2023-06-22T07:35:05;9.82;;;5.22;;
72524;SDS011;60547;48.502;8.996;2023-06-22T07:37:31;10.52;;;4.45;;
72524;SDS011;60547;48.502;8.996;2023-06-22T07:39:58;7.53;;;4.22;;
72524;SDS011;60547;48.502;8.996;2023-06-22T07:42:26;8.50;;;4.30;;
72524;SDS011;60547;48.502;8.996;2023-06-22T07:44:53;7.90;;;4.03;;
72524;SDS011;60547;48.502;8.996;2023-06-22T07:47:19;10.07;;;4.28;;
72524;SDS011;60547;48.502;8.996;2023-06-22T07:49:46;7.10;;;4.25;;
72524;SDS011;60547;48.502;8.996;2023-06-22T07:52:11;8.70;;;4.35;;
72524;SDS011;60547;48.502;8.996;2023-06-22T07:54:37;7.57;;;4.22;;
72524;SDS011;60547;48.502;8.996;2023-06-22T07:57:03;8.88;;;4.75;;
72524;SDS011;60547;48.502;8.996;2023-06-22T07:59:29;9.20;;;4.60;;
72524;SDS011;60547;48.502;8.996;2023-06-22T08:01:54;8.60;;;4.10;;
72524;SDS011;60547;48.502;8.996;2023-06-22T08:04:20;8.35;;;4.13;;
72524;SDS011;60547;48.502;8.996;2023-06-22T08:06:46;7.93;;;4.28;;
72524;SDS011;60547;48.502;8.996;2023-06-22T08:09:11;7.75;;;4.25;;
72524;SDS011;60547;48.502;8.996;2023-06-22T08:11:37;6.95;;;3.97;;
72524;SDS011;60547;48.502;8.996;2023-06-22T08:14:03;10.25;;;4.30;;
72524;SDS011;60547;48.502;8.996;2023-06-22T08:16:28;7.00;;;4.22;;
72524;SDS011;60547;48.502;8.996;2023-06-22T08:18:54;6.78;;;4.30;;
72524;SDS011;60547;48.502;8.996;2023-06-22T08:21:19;8.43;;;4.43;;
72524;SDS011;60547;48.502;8.996;2023-06-22T08:23:45;8.80;;;4.80;;
72524;SDS011;60547;48.502;8.996;2023-06-22T08:26:10;9.73;;;4.50;;
72524;SDS011;60547;48.502;8.996;2023-06-22T08:28:36;9.80;;;4.30;;
72524;SDS011;60547;48.502;8.996;2023-06-22T08:31:02;8.18;;;4.72;;
72524;SDS011;60547;48.502;8.996;2023-06-22T08:33:27;9.52;;;4.20;;
72524;SDS011;60547;48.502;8.996;2023-06-22T08:35:54;7.88;;;4.63;;
72524;SDS011;60547;48.502;8.996;2023-06-22T08:38:20;8.80;;;4.78;;
72524;SDS011;60547;48.502;8.996;2023-06-22T08:40:46;9.50;;;4.57;;
72524;SDS011;60547;48.502;8.996;2023-06-22T08:43:11;11.82;;;4.35;;
72524;SDS011;60547;48.502;8.996;2023-06-22T08:45:37;6.72;;;4.28;;
72524;SDS011;60547;48.502;8.996;2023-06-22T08:48:02;12.23;;;4.57;;
72524;SDS011;60547;48.502;8.996;2023-06-22T08:50:28;8.02;;;4.32;;
72524;SDS011;60547;48.502;8.996;2023-06-22T08:52:53;8.05;;;4.30;;
72524;SDS011;60547;48.502;8.996;2023-06-22T08:55:19;6.90;;;3.85;;
72524;SDS011;60547;48.502;8.996;2023-06-22T08:57:44;10.45;;;5.35;;
72524;SDS011;60547;48.502;8.996;2023-06-22T09:00:10;10.27;;;4.60;;
72524;SDS011;60547;48.502;8.996;2023-06-22T09:02:42;9.38;;;4.65;;
72524;SDS011;60547;48.502;8.996;2023-06-22T09:05:08;11.40;;;4.93;;
72524;SDS011;60547;48.502;8.996;2023-06-22T09:07:34;11.18;;;5.28;;
72524;SDS011;60547;48.502;8.996;2023-06-22T09:09:59;12.20;;;4.72;;
72524;SDS011;60547;48.502;8.996;2023-06-22T09:12:25;9.60;;;4.40;;
72524;SDS011;60547;48.502;8.996;2023-06-22T09:14:52;9.38;;;4.40;;
72524;SDS011;60547;48.502;8.996;2023-06-22T09:17:18;8.63;;;5.32;;
72524;SDS011;60547;48.502;8.996;2023-06-22T09:19:44;12.43;;;4.75;;
72524;SDS011;60547;48.502;8.996;2023-06-22T09:22:10;6.93;;;4.13;;
72524;SDS011;60547;48.502;8.996;2023-06-22T09:24:35;8.82;;;4.50;;
72524;SDS011;60547;48.502;8.996;2023-06-22T09:27:01;11.88;;;5.05;;
72524;SDS011;60547;48.502;8.996;2023-06-22T09:29:28;10.52;;;5.10;;
72524;SDS011;60547;48.502;8.996;2023-06-22T09:31:53;8.40;;;4.43;;
72524;SDS011;60547;48.502;8.996;2023-06-22T09:34:20;10.35;;;4.65;;
72524;SDS011;60547;48.502;8.996;2023-06-22T09:36:48;10.38;;;4.50;;
72524;SDS011;60547;48.502;8.996;2023-06-22T09:39:14;8.88;;;4.65;;
72524;SDS011;60547;48.502;8.996;2023-06-22T09:41:39;8.98;;;4.50;;
72524;SDS011;60547;48.502;8.996;2023-06-22T09:44:05;9.95;;;4.95;;
72524;SDS011;60547;48.502;8.996;2023-06-22T09:46:31;9.52;;;4.35;;
72524;SDS011;60547;48.502;8.996;2023-06-22T09:48:56;10.00;;;4.93;;
72524;SDS011;60547;48.502;8.996;2023-06-22T09:51:22;9.48;;;5.13;;
72524;SDS011;60547;48.502;8.996;2023-06-22T09:53:49;8.98;;;4.60;;
72524;SDS011;60547;48.502;8.996;2023-06-22T09:56:15;7.95;;;4.47;;
72524;SDS011;60547;48.502;8.996;2023-06-22T09:58:44;9.23;;;4.85;;
72524;SDS011;60547;48.502;8.996;2023-06-22T10:01:11;10.23;;;5.03;;
72524;SDS011;60547;48.502;8.996;2023-06-22T10:03:39;7.00;;;4.00;;
72524;SDS011;60547;48.502;8.996;2023-06-22T10:06:06;10.77;;;4.40;;
72524;SDS011;60547;48.502;8.996;2023-06-22T10:08:31;8.45;;;4.50;;
72524;SDS011;60547;48.502;8.996;2023-06-22T10:10:57;8.00;;;4.22;;
72524;SDS011;60547;48.502;8.996;2023-06-22T10:13:22;10.68;;;5.05;;
72524;SDS011;60547;48.502;8.996;2023-06-22T10:15:48;8.88;;;4.43;;
72524;SDS011;60547;48.502;8.996;2023-06-22T10:18:16;8.55;;;5.00;;
72524;SDS011;60547;48.502;8.996;2023-06-22T10:20:42;9.18;;;4.75;;
72524;SDS011;60547;48.502;8.996;2023-06-22T10:23:08;8.00;;;4.53;;
72524;SDS011;60547;48.502;8.996;2023-06-22T10:25:34;10.15;;;4.40;;
72524;SDS011;60547;48.502;8.996;2023-06-22T10:27:59;7.25;;;4.85;;
72524;SDS011;60547;48.502;8.996;2023-06-22T10:30:25;8.30;;;4.30;;
72524;SDS011;60547;48.502;8.996;2023-06-22T10:32:50;9.60;;;4.88;;
72524;SDS011;60547;48.502;8.996;2023-06-22T10:35:16;11.85;;;4.97;;
72524;SDS011;60547;48.502;8.996;2023-06-22T10:37:44;8.05;;;4.18;;
72524;SDS011;60547;48.502;8.996;2023-06-22T10:40:11;10.30;;;4.60;;
72524;SDS011;60547;48.502;8.996;2023-06-22T10:42:38;9.07;;;4.47;;
72524;SDS011;60547;48.502;8.996;2023-06-22T10:45:04;9.70;;;4.82;;
72524;SDS011;60547;48.502;8.996;2023-06-22T10:47:30;8.85;;;4.78;;
72524;SDS011;60547;48.502;8.996;2023-06-22T10:49:55;8.50;;;4.28;;
72524;SDS011;60547;48.502;8.996;2023-06-22T10:52:21;9.93;;;4.72;;
72524;SDS011;60547;48.502;8.996;2023-06-22T10:54:46;8.88;;;4.30;;
72524;SDS011;60547;48.502;8.996;2023-06-22T10:57:12;8.45;;;4.47;;
72524;SDS011;60547;48.502;8.996;2023-06-22T10:59:37;8.25;;;4.22;;
72524;SDS011;60547;48.502;8.996;2023-06-22T11:02:03;8.80;;;4.50;;
72524;SDS011;60547;48.502;8.996;2023-06-22T11:04:28;7.22;;;4.25;;
72524;SDS011;60547;48.502;8.996;2023-06-22T11:06:54;11.95;;;5.07;;
72524;SDS011;60547;48.502;8.996;2023-06-22T11:09:21;8.57;;;4.32;;
72524;SDS011;60547;48.502;8.996;2023-06-22T11:11:47;9.23;;;4.38;;
72524;SDS011;60547;48.502;8.996;2023-06-22T11:14:14;10.88;;;5.40;;
72524;SDS011;60547;48.502;8.996;2023-06-22T11:16:40;12.88;;;4.57;;
72524;SDS011;60547;48.502;8.996;2023-06-22T11:19:05;10.27;;;4.75;;
72524;SDS011;60547;48.502;8.996;2023-06-22T11:21:31;12.40;;;4.60;;
72524;SDS011;60547;48.502;8.996;2023-06-22T11:23:57;9.95;;;4.90;;
72524;SDS011;60547;48.502;8.996;2023-06-22T11:26:24;13.18;;;5.07;;
72524;SDS011;60547;48.502;8.996;2023-06-22T11:28:52;8.85;;;4.40;;
72524;SDS011;60547;48.502;8.996;2023-06-22T11:31:18;8.60;;;4.60;;
72524;SDS011;60547;48.502;8.996;2023-06-22T11:33:44;10.45;;;4.88;;
72524;SDS011;60547;48.502;8.996;2023-06-22T11:36:13;9.85;;;4.82;;
72524;SDS011;60547;48.502;8.996;2023-06-22T11:38:40;11.38;;;5.57;;
72524;SDS011;60547;48.502;8.996;2023-06-22T11:41:06;8.40;;;4.55;;
72524;SDS011;60547;48.502;8.996;2023-06-22T11:43:32;9.55;;;4.38;;
72524;SDS011;60547;48.502;8.996;2023-06-22T11:45:59;15.15;;;4.60;;
72524;SDS011;60547;48.502;8.996;2023-06-22T11:48:25;12.15;;;4.63;;
72524;SDS011;60547;48.502;8.996;2023-06-22T11:50:50;8.70;;;4.75;;
72524;SDS011;60547;48.502;8.996;2023-06-22T11:53:16;10.52;;;5.07;;
72524;SDS011;60547;48.502;8.996;2023-06-22T11:55:42;7.80;;;4.60;;
72524;SDS011;60547;48.502;8.996;2023-06-22T11:58:09;9.43;;;5.00;;
72524;SDS011;60547;48.502;8.996;2023-06-22T12:00:35;11.35;;;5.10;;
72524;SDS011;60547;48.502;8.996;2023-06-22T12:03:00;8.48;;;4.32;;
72524;SDS011;60547;48.502;8.996;2023-06-22T12:05:25;8.82;;;4.70;;
72524;SDS011;60547;48.502;8.996;2023-06-22T12:07:54;11.57;;;5.13;;
72524;SDS011;60547;48.502;8.996;2023-06-22T12:10:20;10.05;;;4.93;;
72524;SDS011;60547;48.502;8.996;2023-06-22T12:12:50;9.75;;;4.78;;
72524;SDS011;60547;48.502;8.996;2023-06-22T12:15:15;12.10;;;4.78;;
72524;SDS011;60547;48.502;8.996;2023-06-22T12:17:41;13.30;;;5.10;;
72524;SDS011;60547;48.502;8.996;2023-06-22T12:20:07;10.82;;;4.82;;
72524;SDS011;60547;48.502;8.996;2023-06-22T12:22:33;9.52;;;4.90;;
72524;SDS011;60547;48.502;8.996;2023-06-22T12:24:59;9.35;;;4.45;;
72524;SDS011;60547;48.502;8.996;2023-06-22T12:27:25;10.90;;;4.80;;
72524;SDS011;60547;48.502;8.996;2023-06-22T12:29:50;10.27;;;4.60;;
72524;SDS011;60547;48.502;8.996;2023-06-22T12:32:17;9.45;;;4.60;;
72524;SDS011;60547;48.502;8.996;2023-06-22T12:34:43;10.30;;;4.40;;
72524;SDS011;60547;48.502;8.996;2023-06-22T12:37:09;9.02;;;4.57;;
72524;SDS011;60547;48.502;8.996;2023-06-22T12:39:35;9.25;;;4.70;;
72524;SDS011;60547;48.502;8.996;2023-06-22T12:42:01;12.63;;;5.03;;
72524;SDS011;60547;48.502;8.996;2023-06-22T12:44:26;9.55;;;4.75;;
72524;SDS011;60547;48.502;8.996;2023-06-22T12:46:52;10.40;;;4.93;;
72524;SDS011;60547;48.502;8.996;2023-06-22T12:49:17;9.20;;;4.82;;
72524;SDS011;60547;48.502;8.996;2023-06-22T12:51:43;10.23;;;4.78;;
72524;SDS011;60547;48.502;8.996;2023-06-22T12:54:09;11.32;;;5.28;;
72524;SDS011;60547;48.502;8.996;2023-06-22T12:56:37;9.00;;;4.65;;
72524;SDS011;60547;48.502;8.996;2023-06-22T12:59:03;8.45;;;4.50;;
72524;SDS011;60547;48.502;8.996;2023-06-22T13:01:32;9.18;;;4.65;;
72524;SDS011;60547;48.502;8.996;2023-06-22T13:03:58;10.25;;;4.93;;
72524;SDS011;60547;48.502;8.996;2023-06-22T13:06:24;10.38;;;5.15;;
72524;SDS011;60547;48.502;8.996;2023-06-22T13:08:50;8.43;;;4.65;;
72524;SDS011;60547;48.502;8.996;2023-06-22T13:11:15;11.50;;;4.80;;
72524;SDS011;60547;48.502;8.996;2023-06-22T13:13:41;9.20;;;4.50;;
72524;SDS011;60547;48.502;8.996;2023-06-22T13:16:07;9.32;;;4.72;;
72524;SDS011;60547;48.502;8.996;2023-06-22T13:18:32;8.05;;;4.38;;
72524;SDS011;60547;48.502;8.996;2023-06-22T13:21:01;9.27;;;4.93;;
72524;SDS011;60547;48.502;8.996;2023-06-22T13:23:29;10.85;;;5.13;;
72524;SDS011;60547;48.502;8.996;2023-06-22T13:25:54;12.73;;;4.95;;
72524;SDS011;60547;48.502;8.996;2023-06-22T13:28:20;12.40;;;4.97;;
72524;SDS011;60547;48.502;8.996;2023-06-22T13:30:46;9.68;;;4.45;;
72524;SDS011;60547;48.502;8.996;2023-06-22T13:33:15;10.45;;;5.10;;
72524;SDS011;60547;48.502;8.996;2023-06-22T13:35:41;10.23;;;4.80;;
72524;SDS011;60547;48.502;8.996;2023-06-22T13:38:10;10.07;;;4.57;;
72524;SDS011;60547;48.502;8.996;2023-06-22T13:40:37;9.73;;;4.88;;
72524;SDS011;60547;48.502;8.996;2023-06-22T13:43:06;10.73;;;5.28;;
72524;SDS011;60547;48.502;8.996;2023-06-22T13:45:32;9.45;;;4.95;;
72524;SDS011;60547;48.502;8.996;2023-06-22T13:47:57;10.45;;;4.85;;
72524;SDS011;60547;48.502;8.996;2023-06-22T13:50:23;13.68;;;5.03;;
72524;SDS011;60547;48.502;8.996;2023-06-22T13:52:48;10.80;;;5.03;;
72524;SDS011;60547;48.502;8.996;2023-06-22T13:55:14;10.75;;;5.22;;
72524;SDS011;60547;48.502;8.996;2023-06-22T13:57:40;9.90;;;5.07;;
72524;SDS011;60547;48.502;8.996;2023-06-22T14:00:06;9.35;;;4.68;;
72524;SDS011;60547;48.502;8.996;2023-06-22T14:02:36;11.70;;;4.88;;
72524;SDS011;60547;48.502;8.996;2023-06-22T14:05:02;9.25;;;5.07;;
72524;SDS011;60547;48.502;8.996;2023-06-22T14:07:27;10.73;;;5.45;;
72524;SDS011;60547;48.502;8.996;2023-06-22T14:09:53;11.30;;;4.88;;
72524;SDS011;60547;48.502;8.996;2023-06-22T14:12:18;10.35;;;4.93;;
72524;SDS011;60547;48.502;8.996;2023-06-22T14:14:44;11.10;;;4.85;;
72524;SDS011;60547;48.502;8.996;2023-06-22T14:17:09;8.82;;;5.43;;
72524;SDS011;60547;48.502;8.996;2023-06-22T14:19:35;9.05;;;4.70;;
72524;SDS011;60547;48.502;8.996;2023-06-22T14:22:01;10.75;;;4.57;;
72524;SDS011;60547;48.502;8.996;2023-06-22T14:24:27;12.30;;;5.43;;
72524;SDS011;60547;48.502;8.996;2023-06-22T14:26:52;11.68;;;5.85;;
72524;SDS011;60547;48.502;8.996;2023-06-22T14:29:18;11.98;;;5.30;;
72524;SDS011;60547;48.502;8.996;2023-06-22T14:31:44;10.60;;;5.25;;
72524;SDS011;60547;48.502;8.996;2023-06-22T14:34:11;12.70;;;5.60;;
72524;SDS011;60547;48.502;8.996;2023-06-22T14:36:36;10.77;;;4.53;;
72524;SDS011;60547;48.502;8.996;2023-06-22T14:39:02;11.77;;;4.75;;
72524;SDS011;60547;48.502;8.996;2023-06-22T14:41:28;9.68;;;3.95;;
72524;SDS011;60547;48.502;8.996;2023-06-22T14:43:55;11.27;;;4.03;;